createdAt,value
2019-05-03T00:02:16.348Z,90.20
2019-05-03T00:04:46.803Z,90.60
2019-05-03T00:07:14.553Z,90.40
2019-05-03T00:09:43.007Z,90.50
2019-05-03T00:12:12.675Z,90.50
2019-05-03T00:14:43.045Z,90.60
2019-05-03T00:17:11.792Z,90.60
2019-05-03T00:19:42.093Z,90.60
2019-05-03T00:22:12.239Z,90.30
2019-05-03T00:24:42.104Z,90.10
2019-05-03T00:27:12.519Z,90.10
2019-05-03T00:29:41.815Z,90.50
2019-05-03T00:32:12.311Z,90.60
2019-05-03T00:34:46.443Z,90.70
2019-05-03T00:37:22.265Z,90.50
2019-05-03T00:39:55.414Z,90.30
2019-05-03T00:42:23.884Z,90.20
2019-05-03T00:44:52.317Z,90.30
2019-05-03T00:47:22.182Z,90.40
2019-05-03T00:49:51.846Z,90.60
2019-05-03T00:52:22.257Z,90.40
2019-05-03T00:54:52.747Z,90.00
2019-05-03T00:57:22.730Z,90.50
2019-05-03T00:59:52.820Z,90.40
2019-05-03T01:02:22.358Z,91.00
2019-05-03T01:04:51.786Z,90.70
2019-05-03T01:07:22.121Z,91.00
2019-05-03T01:09:51.822Z,91.10
2019-05-03T01:12:21.927Z,91.10
2019-05-03T01:14:52.236Z,91.30
2019-05-03T01:17:22.421Z,91.20
2019-05-03T01:19:52.013Z,90.00
2019-05-03T01:22:22.443Z,89.80
2019-05-03T01:24:51.872Z,89.60
2019-05-03T01:27:22.034Z,88.60
2019-05-03T01:29:51.994Z,88.70
2019-05-03T01:32:22.290Z,88.10
2019-05-03T01:34:52.356Z,88.50
2019-05-03T01:37:22.686Z,86.80
2019-05-03T01:39:52.624Z,86.60
2019-05-03T01:42:22.661Z,85.40
2019-05-03T01:44:52.257Z,85.90
2019-05-03T01:47:22.691Z,86.40
2019-05-03T01:50:04.879Z,86.80
2019-05-03T01:52:35.038Z,86.20
2019-05-03T01:55:03.971Z,86.80
2019-05-03T01:57:32.544Z,86.10
2019-05-03T02:00:02.829Z,85.90
2019-05-03T02:02:35.973Z,87.10
2019-05-03T02:05:07.910Z,86.80
2019-05-03T02:07:36.437Z,86.60
2019-05-03T02:10:07.868Z,86.50
2019-05-03T02:12:36.297Z,86.00
2019-05-03T02:15:06.985Z,86.10
2019-05-03T02:17:35.499Z,85.80
2019-05-03T02:20:05.991Z,82.70
2019-05-03T02:22:34.548Z,82.00
2019-05-03T02:25:03.161Z,81.80
2019-05-03T02:27:32.599Z,81.00
2019-05-03T02:30:03.203Z,79.80
2019-05-03T02:32:33.254Z,78.40
2019-05-03T02:35:02.719Z,78.80
2019-05-03T02:37:32.998Z,77.60
2019-05-03T02:40:04.247Z,77.40
2019-05-03T02:42:31.934Z,77.50
2019-05-03T02:45:00.755Z,78.30
2019-05-03T02:47:35.690Z,78.30
2019-05-03T02:50:07.442Z,78.70
2019-05-03T02:52:37.259Z,78.50
2019-05-03T02:55:11.481Z,78.60
2019-05-03T02:57:40.005Z,79.00
2019-05-03T03:00:11.740Z,78.00
2019-05-03T03:02:40.704Z,77.40
2019-05-03T03:05:10.144Z,77.50
2019-05-03T03:07:40.403Z,78.20
2019-05-03T03:10:11.544Z,78.50
2019-05-03T03:12:41.632Z,79.50
2019-05-03T03:15:10.317Z,80.00
2019-05-03T03:17:41.290Z,80.40
2019-05-03T03:20:10.658Z,80.10
2019-05-03T03:22:42.295Z,80.40
2019-05-03T03:25:13.123Z,80.70
2019-05-03T03:27:45.287Z,80.80
2019-05-03T03:30:37.552Z,80.60
2019-05-03T03:33:08.680Z,81.30
2019-05-03T03:35:39.658Z,82.00
2019-05-03T03:38:08.231Z,82.90
2019-05-03T03:40:38.516Z,82.40
2019-05-03T03:43:09.280Z,82.60
2019-05-03T03:45:39.026Z,82.80
2019-05-03T03:48:10.303Z,82.30
2019-05-03T03:50:41.840Z,81.60
2019-05-03T03:53:12.011Z,81.60
2019-05-03T03:55:45.655Z,82.10
2019-05-03T03:58:17.634Z,82.40
2019-05-03T04:00:42.681Z,82.50
2019-05-03T04:03:11.328Z,82.70
2019-05-03T04:05:39.897Z,82.90
2019-05-03T04:08:08.407Z,83.30
2019-05-03T04:10:36.921Z,83.60
2019-05-03T04:13:07.171Z,84.10
2019-05-03T04:15:56.185Z,83.70
2019-05-03T04:18:25.887Z,85.00
2019-05-03T04:20:55.968Z,85.40
2019-05-03T04:23:26.498Z,85.80
2019-05-03T04:25:56.605Z,86.30
2019-05-03T04:28:25.589Z,86.50
2019-05-03T04:30:55.371Z,86.30
2019-05-03T04:33:26.813Z,86.80
2019-05-03T04:35:55.719Z,86.90
2019-05-03T04:38:25.561Z,86.20
2019-05-03T04:40:56.109Z,86.70
2019-05-03T04:43:26.457Z,87.00
2019-05-03T04:46:06.696Z,87.30
2019-05-03T04:48:35.926Z,87.30
2019-05-03T04:51:06.043Z,87.40
2019-05-03T04:53:36.373Z,87.80
2019-05-03T04:56:05.705Z,87.50
2019-05-03T04:58:36.393Z,87.90
2019-05-03T05:01:06.527Z,87.60
2019-05-03T05:03:36.099Z,87.40
2019-05-03T05:06:06.279Z,87.20
2019-05-03T05:08:36.037Z,87.50
2019-05-03T05:11:06.742Z,87.10
2019-05-03T05:13:35.580Z,86.60
2019-05-03T05:16:16.169Z,86.40
2019-05-03T05:18:46.320Z,86.40
2019-05-03T05:21:16.547Z,86.00
2019-05-03T05:23:49.263Z,85.90
2019-05-03T05:26:19.360Z,86.90
2019-05-03T05:28:55.462Z,86.80
2019-05-03T05:31:25.463Z,87.10
2019-05-03T05:33:54.544Z,87.70
2019-05-03T05:36:24.403Z,87.50
2019-05-03T05:38:52.970Z,87.40
2019-05-03T05:41:21.429Z,87.60
2019-05-03T05:43:49.951Z,88.50
2019-05-03T05:46:20.021Z,88.80
2019-05-03T05:48:55.374Z,88.70
2019-05-03T05:51:24.848Z,88.80
2019-05-03T05:53:54.918Z,88.70
2019-05-03T05:56:28.118Z,88.20
2019-05-03T05:59:01.155Z,87.50
2019-05-03T06:01:31.310Z,87.20
2019-05-03T06:03:59.765Z,86.80
2019-05-03T06:06:38.821Z,86.30
2019-05-03T06:09:09.755Z,86.40
2019-05-03T06:11:42.607Z,86.10
2019-05-03T06:14:24.657Z,85.30
2019-05-03T06:17:06.751Z,85.20
2019-05-03T06:19:39.520Z,83.90
2019-05-03T06:22:15.251Z,84.00
2019-05-03T06:24:57.412Z,83.40
2019-05-03T06:27:36.586Z,83.70
2019-05-03T06:30:14.868Z,83.40
2019-05-03T06:32:44.864Z,83.00
2019-05-03T06:35:12.807Z,83.90
2019-05-03T06:37:46.026Z,83.00
2019-05-03T06:40:15.116Z,83.10
2019-05-03T06:42:52.480Z,82.90
2019-05-03T06:45:15.099Z,83.30
2019-05-03T06:47:45.889Z,83.40
2019-05-03T06:50:14.655Z,81.20
2019-05-03T06:52:44.561Z,81.10
2019-05-03T06:55:14.529Z,80.60
2019-05-03T06:57:49.034Z,81.20
2019-05-03T07:00:17.674Z,80.70
2019-05-03T07:02:50.723Z,80.20
2019-05-03T07:05:26.952Z,79.50
2019-05-03T07:07:59.941Z,80.00
2019-05-03T07:10:39.110Z,79.60
2019-05-03T07:13:09.026Z,78.60
2019-05-03T07:15:37.639Z,78.30
2019-05-03T07:18:06.173Z,78.50
2019-05-03T07:20:42.126Z,79.00
2019-05-03T07:23:10.587Z,77.00
2019-05-03T07:25:39.107Z,75.00
2019-05-03T07:28:07.616Z,75.20
2019-05-03T07:30:37.061Z,74.00
2019-05-03T07:33:07.367Z,73.50
2019-05-03T07:35:35.831Z,74.40
2019-05-03T07:38:05.443Z,75.00
2019-05-03T07:40:35.307Z,73.60
2019-05-03T07:43:04.532Z,73.90
2019-05-03T07:45:35.382Z,73.90
2019-05-03T07:48:04.664Z,75.20
2019-05-03T07:50:33.394Z,74.30
2019-05-03T07:53:04.626Z,72.70
2019-05-03T07:55:50.185Z,72.80
2019-05-03T07:58:35.693Z,73.70
2019-05-03T08:01:10.000Z,72.90
2019-05-03T08:03:38.691Z,73.50
2019-05-03T08:06:07.207Z,72.60
2019-05-03T08:08:35.657Z,72.20
2019-05-03T08:11:05.332Z,71.40
2019-05-03T08:13:35.606Z,69.90
2019-05-03T08:16:05.913Z,71.00
2019-05-03T08:18:35.473Z,68.80
2019-05-03T08:21:05.602Z,66.60
2019-05-03T08:23:35.284Z,67.40
2019-05-03T08:26:05.855Z,68.20
2019-05-03T08:28:34.759Z,69.40
2019-05-03T08:31:08.052Z,69.20
2019-05-03T08:33:50.670Z,69.50
2019-05-03T08:36:19.118Z,69.90
2019-05-03T08:38:47.567Z,69.80
2019-05-03T08:41:17.724Z,68.70
2019-05-03T08:43:46.239Z,67.50
2019-05-03T08:46:14.914Z,66.10
2019-05-03T08:48:45.626Z,66.00
2019-05-03T08:51:14.885Z,65.30
2019-05-03T08:53:45.788Z,64.60
2019-05-03T08:56:15.486Z,63.00
2019-05-03T08:58:45.068Z,63.00
2019-05-03T09:01:14.866Z,63.40
2019-05-03T09:03:45.589Z,64.70
2019-05-03T09:06:15.468Z,64.10
2019-05-03T09:08:45.790Z,62.30
2019-05-03T09:11:16.118Z,63.90
2019-05-03T09:13:52.518Z,61.80
2019-05-03T09:16:21.072Z,61.80
2019-05-03T09:18:49.660Z,61.30
2019-05-03T09:21:18.179Z,61.60
2019-05-03T09:23:46.666Z,59.40
2019-05-03T09:26:15.360Z,60.00
2019-05-03T09:28:45.384Z,60.00
2019-05-03T09:31:15.562Z,57.90
2019-05-03T09:33:45.153Z,58.10
2019-05-03T09:36:14.665Z,57.70
2019-05-03T09:38:45.534Z,60.20
2019-05-03T09:41:15.063Z,57.20
2019-05-03T09:43:45.114Z,54.20
2019-05-03T09:46:14.585Z,54.90
2019-05-03T09:48:45.257Z,56.70
2019-05-03T09:51:14.742Z,58.10
2019-05-03T09:53:51.098Z,56.90
2019-05-03T09:56:21.201Z,56.70
2019-05-03T09:58:49.766Z,58.10
2019-05-03T10:01:18.267Z,58.00
2019-05-03T10:03:46.725Z,56.00
2019-05-03T10:06:17.450Z,56.20
2019-05-03T10:08:45.588Z,56.70
2019-05-03T10:11:15.591Z,53.00
2019-05-03T10:13:48.192Z,54.90
2019-05-03T10:16:15.709Z,54.90
2019-05-03T10:18:46.021Z,56.60
2019-05-03T10:21:14.986Z,57.90
2019-05-03T10:23:45.150Z,58.70
2019-05-03T10:26:14.995Z,58.50
2019-05-03T10:28:43.408Z,56.10
2019-05-03T10:31:11.911Z,52.90
2019-05-03T10:33:45.099Z,51.70
2019-05-03T10:36:15.405Z,52.10
2019-05-03T10:38:45.943Z,53.60
2019-05-03T10:41:13.518Z,53.70
2019-05-03T10:43:42.035Z,55.00
2019-05-03T10:46:10.533Z,51.70
2019-05-03T10:48:38.984Z,51.90
2019-05-03T10:51:07.509Z,50.80
2019-05-03T10:53:37.608Z,51.70
2019-05-03T10:56:23.251Z,52.80
2019-05-03T10:59:07.042Z,51.70
2019-05-03T11:01:54.503Z,51.10
2019-05-03T11:04:23.706Z,48.80
2019-05-03T11:06:52.238Z,47.80
2019-05-03T11:09:20.722Z,49.30
2019-05-03T11:11:49.339Z,49.30
2019-05-03T11:14:17.893Z,50.90
2019-05-03T11:16:46.339Z,51.80
2019-05-03T11:19:14.990Z,52.80
2019-05-03T11:21:45.319Z,48.90
2019-05-03T11:24:14.821Z,46.60
2019-05-03T11:26:45.512Z,46.40
2019-05-03T11:29:15.843Z,46.10
2019-05-03T11:31:55.122Z,47.00
2019-05-03T11:34:28.553Z,48.10
2019-05-03T11:37:07.924Z,45.80
2019-05-03T11:39:36.406Z,44.70
2019-05-03T11:42:05.032Z,46.10
2019-05-03T11:44:39.410Z,46.70
2019-05-03T11:47:09.570Z,46.90
2019-05-03T11:49:38.584Z,49.30
2019-05-03T11:52:07.283Z,47.40
2019-05-03T11:54:36.108Z,48.10
2019-05-03T11:57:06.780Z,48.60
2019-05-03T11:59:35.429Z,50.00
2019-05-03T12:02:17.790Z,49.20
2019-05-03T12:04:46.303Z,47.60
2019-05-03T12:07:18.421Z,47.30
2019-05-03T12:09:46.635Z,47.70
2019-05-03T12:12:16.714Z,45.00
2019-05-03T12:14:45.372Z,44.00
2019-05-03T12:17:25.763Z,45.20
2019-05-03T12:19:49.886Z,46.40
2019-05-03T12:22:19.495Z,46.80
2019-05-03T12:24:48.864Z,47.40
2019-05-03T12:27:17.873Z,48.90
2019-05-03T12:29:46.403Z,49.40
2019-05-03T12:32:14.987Z,48.90
2019-05-03T12:34:43.448Z,49.80
2019-05-03T12:37:11.966Z,50.60
2019-05-03T12:39:40.494Z,50.10
2019-05-03T12:42:09.389Z,50.40
2019-05-03T12:44:37.844Z,50.10
2019-05-03T12:47:06.345Z,50.60
2019-05-03T12:49:35.897Z,49.90
2019-05-03T12:52:05.334Z,46.90
2019-05-03T12:54:35.656Z,47.30
2019-05-03T12:57:05.092Z,47.00
2019-05-03T12:59:38.073Z,46.30
2019-05-03T13:02:15.529Z,45.00
2019-05-03T13:04:45.714Z,43.20
2019-05-03T13:07:32.075Z,44.20
2019-05-03T13:10:00.522Z,44.50
2019-05-03T13:12:30.248Z,44.90
2019-05-03T13:14:58.762Z,45.20
2019-05-03T13:17:36.761Z,44.60
2019-05-03T13:20:12.060Z,45.30
2019-05-03T13:22:40.654Z,46.90
2019-05-03T13:25:10.060Z,47.80
2019-05-03T13:27:38.552Z,47.20
2019-05-03T13:30:09.222Z,47.20
2019-05-03T13:32:37.850Z,45.70
2019-05-03T13:35:07.142Z,46.00
2019-05-03T13:37:35.917Z,46.80
2019-05-03T13:40:06.529Z,46.00
2019-05-03T13:42:35.011Z,47.00
2019-05-03T13:45:07.416Z,47.10
2019-05-03T13:47:35.968Z,47.80
2019-05-03T13:50:08.945Z,47.80
2019-05-03T13:52:37.424Z,48.00
2019-05-03T13:55:07.773Z,48.90
2019-05-03T13:57:35.522Z,49.40
2019-05-03T14:00:06.288Z,48.50
2019-05-03T14:02:35.741Z,47.50
2019-05-03T14:05:06.747Z,46.70
2019-05-03T14:07:35.498Z,46.40
2019-05-03T14:10:08.854Z,47.90
2019-05-03T14:12:37.348Z,50.00
2019-05-03T14:15:08.399Z,50.50
2019-05-03T14:17:36.966Z,51.20
2019-05-03T14:20:08.865Z,52.10
2019-05-03T14:22:48.307Z,52.70
2019-05-03T14:25:16.764Z,53.10
2019-05-03T14:27:45.682Z,54.60
2019-05-03T14:30:14.683Z,56.50
2019-05-03T14:32:45.139Z,56.10
2019-05-03T14:35:14.384Z,55.00
2019-05-03T14:37:45.849Z,55.40
2019-05-03T14:40:14.681Z,54.10
2019-05-03T14:42:44.643Z,51.20
2019-05-03T14:45:15.065Z,52.00
2019-05-03T14:47:43.132Z,48.20
2019-05-03T14:50:12.182Z,46.80
2019-05-03T14:52:40.635Z,46.80
2019-05-03T14:55:26.999Z,46.80
2019-05-03T14:58:00.087Z,48.50
2019-05-03T15:00:46.508Z,47.90
2019-05-03T15:03:16.740Z,47.50
2019-05-03T15:05:45.196Z,48.20
2019-05-03T15:08:14.985Z,49.70
2019-05-03T15:10:45.639Z,51.40
2019-05-03T15:13:13.279Z,51.80
2019-05-03T15:15:41.744Z,53.20
2019-05-03T15:18:10.231Z,55.10
2019-05-03T15:20:41.076Z,57.30
2019-05-03T15:23:08.923Z,59.30
2019-05-03T15:25:37.415Z,62.10
2019-05-03T15:28:06.041Z,62.40
2019-05-03T15:30:35.225Z,63.30
2019-05-03T15:33:05.203Z,63.90
2019-05-03T15:35:35.158Z,61.10
2019-05-03T15:38:05.385Z,62.00
2019-05-03T15:40:34.201Z,61.60
2019-05-03T15:43:05.552Z,60.20
2019-05-03T15:45:38.811Z,60.20
2019-05-03T15:48:09.410Z,59.80
2019-05-03T15:50:37.099Z,60.70
2019-05-03T15:53:05.626Z,60.90
2019-05-03T15:55:34.191Z,59.50
2019-05-03T15:58:04.650Z,58.90
2019-05-03T16:00:32.903Z,58.10
2019-05-03T16:03:08.061Z,57.20
2019-05-03T16:05:31.558Z,57.00
2019-05-03T16:08:00.096Z,57.30
2019-05-03T16:10:28.556Z,57.40
2019-05-03T16:12:57.083Z,58.40
2019-05-03T16:15:25.559Z,58.90
2019-05-03T16:17:54.781Z,59.00
2019-05-03T16:20:25.155Z,59.50
2019-05-03T16:22:54.398Z,58.60
2019-05-03T16:25:25.102Z,59.40
2019-05-03T16:28:04.785Z,59.30
2019-05-03T16:30:36.699Z,59.30
2019-05-03T16:33:05.297Z,59.80
2019-05-03T16:35:34.977Z,59.20
2019-05-03T16:38:06.021Z,59.40
2019-05-03T16:40:34.823Z,59.80
2019-05-03T16:43:03.334Z,59.60
2019-05-03T16:45:31.791Z,60.20
2019-05-03T16:48:00.298Z,59.90
2019-05-03T16:50:28.750Z,60.30
2019-05-03T16:52:57.238Z,60.10
2019-05-03T16:55:25.873Z,60.10
2019-05-03T16:57:54.919Z,60.30
2019-05-03T17:00:25.021Z,61.40
2019-05-03T17:02:55.073Z,60.20
2019-05-03T17:05:28.218Z,60.00
2019-05-03T17:08:01.146Z,60.60
2019-05-03T17:10:31.306Z,60.10
2019-05-03T17:12:59.755Z,59.80
2019-05-03T17:15:29.392Z,58.30
2019-05-03T17:17:57.920Z,58.90
2019-05-03T17:20:26.455Z,58.20
2019-05-03T17:22:55.489Z,57.90
2019-05-03T17:25:24.575Z,57.60
2019-05-03T17:27:54.345Z,57.90
2019-05-03T17:30:32.672Z,57.90
2019-05-03T17:32:55.007Z,57.60
2019-05-03T17:35:25.023Z,58.00
2019-05-03T17:37:54.613Z,57.60
2019-05-03T17:40:26.863Z,58.20
2019-05-03T17:43:15.122Z,58.00
2019-05-03T17:45:51.180Z,58.70
2019-05-03T17:48:19.780Z,58.20
2019-05-03T17:50:48.222Z,58.90
2019-05-03T17:53:25.322Z,59.70
2019-05-03T17:55:58.711Z,60.20
2019-05-03T17:58:45.471Z,60.90
2019-05-03T18:01:31.978Z,61.00
2019-05-03T18:04:20.212Z,62.10
2019-05-03T18:07:05.387Z,61.80
2019-05-03T18:09:38.190Z,62.50
2019-05-03T18:12:06.667Z,62.90
2019-05-03T18:14:35.264Z,63.30
2019-05-03T18:17:05.549Z,63.40
2019-05-03T18:19:34.343Z,63.90
2019-05-03T18:22:05.063Z,63.70
2019-05-03T18:24:35.056Z,64.50
2019-05-03T18:27:03.596Z,64.40
2019-05-03T18:29:32.042Z,64.90
2019-05-03T18:32:00.490Z,65.70
2019-05-03T18:34:28.974Z,65.30
2019-05-03T18:36:57.427Z,65.10
2019-05-03T18:39:25.999Z,65.70
2019-05-03T18:41:54.531Z,66.10
2019-05-03T18:44:24.621Z,66.00
2019-05-03T18:46:57.918Z,66.20
2019-05-03T18:49:26.441Z,66.60
2019-05-03T18:51:55.400Z,67.20
2019-05-03T18:54:24.589Z,68.20
2019-05-03T18:56:53.234Z,67.60
2019-05-03T18:59:21.763Z,68.70
2019-05-03T19:01:50.246Z,68.70
2019-05-03T19:04:31.525Z,69.20
2019-05-03T19:07:01.974Z,69.30
2019-05-03T19:09:31.467Z,70.00
2019-05-03T19:12:15.243Z,70.50
2019-05-03T19:14:44.535Z,71.20
2019-05-03T19:17:24.875Z,71.50
2019-05-03T19:19:56.744Z,72.10
2019-05-03T19:22:25.341Z,72.90
2019-05-03T19:24:53.792Z,73.10
2019-05-03T19:27:22.311Z,73.60
2019-05-03T19:29:50.790Z,73.90
2019-05-03T19:32:19.235Z,73.80
2019-05-03T19:34:51.302Z,74.40
2019-05-03T19:37:17.979Z,74.20
2019-05-03T19:39:46.544Z,74.60
2019-05-03T19:42:15.028Z,75.10
2019-05-03T19:44:45.298Z,75.40
2019-05-03T19:47:15.543Z,75.90
2019-05-03T19:49:45.416Z,76.20
2019-05-03T19:52:15.785Z,76.10
2019-05-03T19:54:44.857Z,75.90
2019-05-03T19:57:15.281Z,75.90
2019-05-03T19:59:56.872Z,76.70
2019-05-03T20:02:35.155Z,77.00
2019-05-03T20:05:07.454Z,77.50
2019-05-03T20:07:56.971Z,77.70
2019-05-03T20:10:25.368Z,77.40
2019-05-03T20:12:53.991Z,77.80
2019-05-03T20:15:22.555Z,77.50
2019-05-03T20:17:59.201Z,77.80
2019-05-03T20:20:21.243Z,77.90
2019-05-03T20:22:49.692Z,78.40
2019-05-03T20:25:18.158Z,78.60
2019-05-03T20:27:46.716Z,78.40
2019-05-03T20:30:15.602Z,78.60
2019-05-03T20:32:45.030Z,79.10
2019-05-03T20:35:18.886Z,78.60
2019-05-03T20:37:44.860Z,79.30
2019-05-03T20:40:15.329Z,78.80
2019-05-03T20:42:47.470Z,79.10
2019-05-03T20:45:17.835Z,79.10
2019-05-03T20:47:50.635Z,77.30
2019-05-03T20:50:19.211Z,77.00
2019-05-03T20:52:47.666Z,77.40
2019-05-03T20:55:16.283Z,76.30
2019-05-03T20:57:44.787Z,76.00
2019-05-03T21:00:15.077Z,76.70
2019-05-03T21:02:52.443Z,74.80
2019-05-03T21:05:26.191Z,74.30
2019-05-03T21:07:45.379Z,74.70
2019-05-03T21:10:15.640Z,74.20
2019-05-03T21:12:44.468Z,74.50
2019-05-03T21:15:29.892Z,74.00
2019-05-03T21:18:11.679Z,74.00
2019-05-03T21:20:45.039Z,74.20
2019-05-03T21:23:21.018Z,74.40
2019-05-03T21:26:08.173Z,74.00
2019-05-03T21:28:25.186Z,73.70
2019-05-03T21:30:54.916Z,73.40
2019-05-03T21:33:23.500Z,73.00
2019-05-03T21:35:51.942Z,73.20
2019-05-03T21:38:20.455Z,73.40
2019-05-03T21:40:48.898Z,72.80
2019-05-03T21:43:17.352Z,73.00
2019-05-03T21:45:47.479Z,73.10
2019-05-03T21:48:17.566Z,73.70
2019-05-03T21:50:46.075Z,74.00
2019-05-03T21:53:14.840Z,74.20
2019-05-03T21:55:44.749Z,74.30
2019-05-03T21:58:16.053Z,74.70
2019-05-03T22:00:48.174Z,74.60
2019-05-03T22:03:16.724Z,74.70
2019-05-03T22:05:54.838Z,74.80
2019-05-03T22:08:15.573Z,75.40
2019-05-03T22:10:45.050Z,75.80
2019-05-03T22:13:15.394Z,76.50
2019-05-03T22:15:51.289Z,77.00
2019-05-03T22:18:24.943Z,77.60
2019-05-03T22:21:11.536Z,77.70
2019-05-03T22:23:50.695Z,79.80
2019-05-03T22:26:20.834Z,79.00
2019-05-03T22:28:49.295Z,79.50
2019-05-03T22:31:17.854Z,78.90
2019-05-03T22:33:46.399Z,79.00
2019-05-03T22:36:14.906Z,79.50
2019-05-03T22:38:44.891Z,79.00
2019-05-03T22:41:14.796Z,79.30
2019-05-03T22:43:45.541Z,81.30
2019-05-03T22:46:14.556Z,81.20
2019-05-03T22:48:44.935Z,80.50
2019-05-03T22:51:15.125Z,80.50
2019-05-03T22:53:44.845Z,80.90
2019-05-03T22:56:14.470Z,80.30
2019-05-03T22:58:43.167Z,80.50
2019-05-03T23:01:11.677Z,79.90
2019-05-03T23:03:44.916Z,81.00
2019-05-03T23:06:20.304Z,81.00
2019-05-03T23:08:44.154Z,81.20
2019-05-03T23:11:12.705Z,82.30
2019-05-03T23:13:41.155Z,82.30
2019-05-03T23:16:09.655Z,82.90
2019-05-03T23:18:38.104Z,84.20
2019-05-03T23:21:20.207Z,84.70
2019-05-03T23:23:49.995Z,86.10
2019-05-03T23:26:18.580Z,86.20
2019-05-03T23:28:47.198Z,86.90
2019-05-03T23:31:15.887Z,87.40
2019-05-03T23:33:45.240Z,87.90
2019-05-03T23:36:15.414Z,88.90
2019-05-03T23:38:45.205Z,89.70
2019-05-03T23:41:15.321Z,89.50
2019-05-03T23:43:45.150Z,89.90
2019-05-03T23:46:15.884Z,90.00
2019-05-03T23:48:44.701Z,90.00
2019-05-03T23:51:15.025Z,89.70
2019-05-03T23:53:44.668Z,89.20
2019-05-03T23:56:21.042Z,89.60
2019-05-03T23:58:49.549Z,89.90
